sensor_id;sensor_type;location;lat;lon;timestamp;P1;durP1;ratioP1;P2;durP2;ratioP2
17310;SDS011;8773;43.300;0.394;2023-03-29T00:34:30;4.27;;;2.60;;
17310;SDS011;8773;43.300;0.394;2023-03-29T00:37:01;4.77;;;2.17;;
17310;SDS011;8773;43.300;0.394;2023-03-29T00:39:34;4.20;;;2.00;;
17310;SDS011;8773;43.300;0.394;2023-03-29T00:42:02;3.80;;;2.10;;
17310;SDS011;8773;43.300;0.394;2023-03-29T00:47:26;2.30;;;2.10;;
17310;SDS011;8773;43.300;0.394;2023-03-29T00:49:59;2.97;;;2.10;;
17310;SDS011;8773;43.300;0.394;2023-03-29T00:52:31;2.47;;;2.17;;
17310;SDS011;8773;43.300;0.394;2023-03-29T00:55:01;2.83;;;2.40;;
17310;SDS011;8773;43.300;0.394;2023-03-29T00:57:33;3.10;;;2.30;;
17310;SDS011;8773;43.300;0.394;2023-03-29T01:00:03;2.53;;;2.40;;
17310;SDS011;8773;43.300;0.394;2023-03-29T01:02:35;2.87;;;2.37;;
17310;SDS011;8773;43.300;0.394;2023-03-29T01:05:08;3.17;;;2.87;;
17310;SDS011;8773;43.300;0.394;2023-03-29T01:07:40;3.47;;;2.30;;
17310;SDS011;8773;43.300;0.394;2023-03-29T01:10:15;3.20;;;2.40;;
17310;SDS011;8773;43.300;0.394;2023-03-29T01:12:47;2.50;;;2.30;;
17310;SDS011;8773;43.300;0.394;2023-03-29T01:15:21;2.50;;;2.40;;
17310;SDS011;8773;43.300;0.394;2023-03-29T01:17:51;2.40;;;2.20;;
17310;SDS011;8773;43.300;0.394;2023-03-29T01:20:25;3.63;;;2.00;;
17310;SDS011;8773;43.300;0.394;2023-03-29T01:23:09;4.20;;;2.47;;
17310;SDS011;8773;43.300;0.394;2023-03-29T01:25:54;4.47;;;2.57;;
17310;SDS011;8773;43.300;0.394;2023-03-29T01:28:30;4.20;;;2.60;;
17310;SDS011;8773;43.300;0.394;2023-03-29T01:31:02;3.77;;;2.73;;
17310;SDS011;8773;43.300;0.394;2023-03-29T01:33:36;2.73;;;2.53;;
17310;SDS011;8773;43.300;0.394;2023-03-29T01:36:08;4.17;;;2.33;;
17310;SDS011;8773;43.300;0.394;2023-03-29T01:38:45;3.70;;;2.50;;
17310;SDS011;8773;43.300;0.394;2023-03-29T01:41:19;4.93;;;3.00;;
17310;SDS011;8773;43.300;0.394;2023-03-29T01:43:51;2.57;;;2.33;;
17310;SDS011;8773;43.300;0.394;2023-03-29T01:46:26;3.53;;;2.63;;
17310;SDS011;8773;43.300;0.394;2023-03-29T01:49:00;3.00;;;2.50;;
17310;SDS011;8773;43.300;0.394;2023-03-29T01:51:37;2.93;;;2.40;;
17310;SDS011;8773;43.300;0.394;2023-03-29T01:54:09;5.30;;;2.93;;
17310;SDS011;8773;43.300;0.394;2023-03-29T01:56:42;2.60;;;2.40;;
17310;SDS011;8773;43.300;0.394;2023-03-29T01:59:17;3.07;;;2.47;;
17310;SDS011;8773;43.300;0.394;2023-03-29T02:01:49;2.80;;;2.60;;
17310;SDS011;8773;43.300;0.394;2023-03-29T02:04:21;2.80;;;2.67;;
17310;SDS011;8773;43.300;0.394;2023-03-29T02:06:51;4.20;;;2.40;;
17310;SDS011;8773;43.300;0.394;2023-03-29T02:09:22;3.73;;;2.50;;
17310;SDS011;8773;43.300;0.394;2023-03-29T02:11:50;3.87;;;2.57;;
17310;SDS011;8773;43.300;0.394;2023-03-29T02:14:21;5.23;;;2.40;;
17310;SDS011;8773;43.300;0.394;2023-03-29T02:16:50;4.23;;;2.63;;
17310;SDS011;8773;43.300;0.394;2023-03-29T02:19:18;3.37;;;2.47;;
17310;SDS011;8773;43.300;0.394;2023-03-29T02:21:49;4.93;;;2.73;;
17310;SDS011;8773;43.300;0.394;2023-03-29T02:24:22;4.33;;;2.30;;
17310;SDS011;8773;43.300;0.394;2023-03-29T02:26:51;2.97;;;2.37;;
17310;SDS011;8773;43.300;0.394;2023-03-29T02:29:21;2.30;;;2.07;;
17310;SDS011;8773;43.300;0.394;2023-03-29T02:31:50;5.07;;;2.77;;
17310;SDS011;8773;43.300;0.394;2023-03-29T02:34:23;4.93;;;2.60;;
17310;SDS011;8773;43.300;0.394;2023-03-29T02:36:55;4.27;;;2.33;;
17310;SDS011;8773;43.300;0.394;2023-03-29T02:39:27;3.47;;;2.33;;
17310;SDS011;8773;43.300;0.394;2023-03-29T02:41:57;4.27;;;2.60;;
17310;SDS011;8773;43.300;0.394;2023-03-29T02:44:27;3.73;;;2.20;;
17310;SDS011;8773;43.300;0.394;2023-03-29T02:46:59;5.13;;;2.53;;
17310;SDS011;8773;43.300;0.394;2023-03-29T02:49:33;3.50;;;2.67;;
17310;SDS011;8773;43.300;0.394;2023-03-29T02:52:03;5.77;;;2.70;;
17310;SDS011;8773;43.300;0.394;2023-03-29T02:54:35;6.67;;;2.80;;
17310;SDS011;8773;43.300;0.394;2023-03-29T02:57:09;4.77;;;2.90;;
17310;SDS011;8773;43.300;0.394;2023-03-29T02:59:39;8.03;;;2.70;;
17310;SDS011;8773;43.300;0.394;2023-03-29T03:02:09;8.03;;;2.70;;
17310;SDS011;8773;43.300;0.394;2023-03-29T03:04:39;5.33;;;2.80;;
17310;SDS011;8773;43.300;0.394;2023-03-29T03:07:07;4.10;;;2.87;;
17310;SDS011;8773;43.300;0.394;2023-03-29T03:09:35;4.87;;;2.40;;
17310;SDS011;8773;43.300;0.394;2023-03-29T03:12:03;6.13;;;2.70;;
17310;SDS011;8773;43.300;0.394;2023-03-29T03:14:31;3.20;;;2.03;;
17310;SDS011;8773;43.300;0.394;2023-03-29T03:17:01;5.40;;;2.50;;
17310;SDS011;8773;43.300;0.394;2023-03-29T03:19:30;6.40;;;3.17;;
17310;SDS011;8773;43.300;0.394;2023-03-29T03:21:58;5.73;;;2.50;;
17310;SDS011;8773;43.300;0.394;2023-03-29T03:24:26;5.30;;;2.80;;
17310;SDS011;8773;43.300;0.394;2023-03-29T03:26:54;5.37;;;2.40;;
17310;SDS011;8773;43.300;0.394;2023-03-29T03:29:23;4.67;;;2.53;;
17310;SDS011;8773;43.300;0.394;2023-03-29T03:31:51;3.70;;;2.50;;
17310;SDS011;8773;43.300;0.394;2023-03-29T03:34:21;5.30;;;2.60;;
17310;SDS011;8773;43.300;0.394;2023-03-29T03:36:49;3.47;;;1.97;;
17310;SDS011;8773;43.300;0.394;2023-03-29T03:39:17;4.47;;;2.47;;
17310;SDS011;8773;43.300;0.394;2023-03-29T03:41:45;3.83;;;2.20;;
17310;SDS011;8773;43.300;0.394;2023-03-29T03:44:13;4.40;;;2.10;;
17310;SDS011;8773;43.300;0.394;2023-03-29T03:46:41;3.23;;;2.17;;
17310;SDS011;8773;43.300;0.394;2023-03-29T03:49:09;4.30;;;2.47;;
17310;SDS011;8773;43.300;0.394;2023-03-29T03:51:38;6.33;;;2.57;;
17310;SDS011;8773;43.300;0.394;2023-03-29T03:54:07;6.57;;;2.50;;
17310;SDS011;8773;43.300;0.394;2023-03-29T03:56:35;4.03;;;2.80;;
17310;SDS011;8773;43.300;0.394;2023-03-29T03:59:03;6.40;;;2.50;;
17310;SDS011;8773;43.300;0.394;2023-03-29T04:01:33;3.13;;;2.20;;
17310;SDS011;8773;43.300;0.394;2023-03-29T04:04:03;6.57;;;2.70;;
17310;SDS011;8773;43.300;0.394;2023-03-29T04:06:31;5.63;;;2.60;;
17310;SDS011;8773;43.300;0.394;2023-03-29T04:09:01;4.83;;;2.17;;
17310;SDS011;8773;43.300;0.394;2023-03-29T04:11:29;6.00;;;2.40;;
17310;SDS011;8773;43.300;0.394;2023-03-29T04:13:57;5.67;;;2.57;;
17310;SDS011;8773;43.300;0.394;2023-03-29T04:16:25;4.90;;;2.47;;
17310;SDS011;8773;43.300;0.394;2023-03-29T04:18:54;5.73;;;2.23;;
17310;SDS011;8773;43.300;0.394;2023-03-29T04:21:22;6.47;;;2.57;;
17310;SDS011;8773;43.300;0.394;2023-03-29T04:23:50;3.90;;;2.13;;
17310;SDS011;8773;43.300;0.394;2023-03-29T04:26:20;6.97;;;2.30;;
17310;SDS011;8773;43.300;0.394;2023-03-29T04:28:48;4.47;;;2.20;;
17310;SDS011;8773;43.300;0.394;2023-03-29T04:31:16;6.27;;;2.70;;
17310;SDS011;8773;43.300;0.394;2023-03-29T04:33:44;3.30;;;2.00;;
17310;SDS011;8773;43.300;0.394;2023-03-29T04:36:13;7.73;;;2.53;;
17310;SDS011;8773;43.300;0.394;2023-03-29T04:38:41;5.67;;;2.23;;
17310;SDS011;8773;43.300;0.394;2023-03-29T04:41:13;5.33;;;2.23;;
17310;SDS011;8773;43.300;0.394;2023-03-29T04:43:42;6.43;;;2.37;;
17310;SDS011;8773;43.300;0.394;2023-03-29T04:46:12;7.03;;;2.57;;
17310;SDS011;8773;43.300;0.394;2023-03-29T04:48:40;3.97;;;2.43;;
17310;SDS011;8773;43.300;0.394;2023-03-29T04:51:08;8.63;;;2.57;;
17310;SDS011;8773;43.300;0.394;2023-03-29T04:53:36;6.17;;;2.30;;
17310;SDS011;8773;43.300;0.394;2023-03-29T04:56:05;6.97;;;2.30;;
17310;SDS011;8773;43.300;0.394;2023-03-29T04:58:33;4.17;;;2.30;;
17310;SDS011;8773;43.300;0.394;2023-03-29T05:01:03;4.30;;;2.40;;
17310;SDS011;8773;43.300;0.394;2023-03-29T05:03:31;3.93;;;2.80;;
17310;SDS011;8773;43.300;0.394;2023-03-29T05:06:01;9.07;;;2.70;;
17310;SDS011;8773;43.300;0.394;2023-03-29T05:08:32;6.30;;;2.70;;
17310;SDS011;8773;43.300;0.394;2023-03-29T05:11:04;6.33;;;2.70;;
17310;SDS011;8773;43.300;0.394;2023-03-29T05:13:33;6.00;;;2.50;;
17310;SDS011;8773;43.300;0.394;2023-03-29T05:16:03;6.20;;;2.63;;
17310;SDS011;8773;43.300;0.394;2023-03-29T05:18:33;3.63;;;2.63;;
17310;SDS011;8773;43.300;0.394;2023-03-29T05:21:01;3.93;;;2.70;;
17310;SDS011;8773;43.300;0.394;2023-03-29T05:23:30;6.10;;;2.70;;
17310;SDS011;8773;43.300;0.394;2023-03-29T05:25:57;2.83;;;2.50;;
17310;SDS011;8773;43.300;0.394;2023-03-29T05:28:26;4.97;;;2.60;;
17310;SDS011;8773;43.300;0.394;2023-03-29T05:31:00;8.60;;;2.60;;
17310;SDS011;8773;43.300;0.394;2023-03-29T05:33:32;7.90;;;3.20;;
17310;SDS011;8773;43.300;0.394;2023-03-29T05:36:02;6.93;;;2.60;;
17310;SDS011;8773;43.300;0.394;2023-03-29T05:38:31;6.07;;;2.83;;
17310;SDS011;8773;43.300;0.394;2023-03-29T05:41:00;7.07;;;2.90;;
17310;SDS011;8773;43.300;0.394;2023-03-29T05:43:28;6.57;;;2.80;;
17310;SDS011;8773;43.300;0.394;2023-03-29T05:45:56;4.57;;;2.93;;
17310;SDS011;8773;43.300;0.394;2023-03-29T05:48:25;5.70;;;2.60;;
17310;SDS011;8773;43.300;0.394;2023-03-29T05:50:55;6.10;;;3.00;;
17310;SDS011;8773;43.300;0.394;2023-03-29T05:53:24;2.97;;;2.70;;
17310;SDS011;8773;43.300;0.394;2023-03-29T05:55:54;4.40;;;3.03;;
17310;SDS011;8773;43.300;0.394;2023-03-29T05:58:22;6.20;;;3.10;;
17310;SDS011;8773;43.300;0.394;2023-03-29T06:00:52;7.73;;;2.80;;
17310;SDS011;8773;43.300;0.394;2023-03-29T06:03:22;8.60;;;3.40;;
17310;SDS011;8773;43.300;0.394;2023-03-29T06:05:58;8.53;;;3.20;;
17310;SDS011;8773;43.300;0.394;2023-03-29T06:08:27;5.13;;;2.80;;
17310;SDS011;8773;43.300;0.394;2023-03-29T06:10:57;7.73;;;2.87;;
17310;SDS011;8773;43.300;0.394;2023-03-29T06:13:30;6.13;;;3.13;;
17310;SDS011;8773;43.300;0.394;2023-03-29T06:15:59;7.40;;;2.80;;
17310;SDS011;8773;43.300;0.394;2023-03-29T06:18:29;5.67;;;2.60;;
17310;SDS011;8773;43.300;0.394;2023-03-29T06:20:59;7.10;;;2.97;;
17310;SDS011;8773;43.300;0.394;2023-03-29T06:23:29;10.57;;;3.40;;
17310;SDS011;8773;43.300;0.394;2023-03-29T06:25:57;8.40;;;2.77;;
17310;SDS011;8773;43.300;0.394;2023-03-29T06:28:26;5.67;;;3.00;;
17310;SDS011;8773;43.300;0.394;2023-03-29T06:30:54;7.50;;;2.70;;
17310;SDS011;8773;43.300;0.394;2023-03-29T06:33:29;6.87;;;2.67;;
17310;SDS011;8773;43.300;0.394;2023-03-29T06:35:59;3.97;;;2.80;;
17310;SDS011;8773;43.300;0.394;2023-03-29T06:38:27;6.93;;;2.67;;
17310;SDS011;8773;43.300;0.394;2023-03-29T06:40:59;8.43;;;3.20;;
17310;SDS011;8773;43.300;0.394;2023-03-29T06:43:29;6.90;;;3.10;;
17310;SDS011;8773;43.300;0.394;2023-03-29T06:45:58;7.17;;;3.30;;
17310;SDS011;8773;43.300;0.394;2023-03-29T06:48:28;7.53;;;2.93;;
17310;SDS011;8773;43.300;0.394;2023-03-29T06:50:56;5.27;;;2.90;;
17310;SDS011;8773;43.300;0.394;2023-03-29T06:53:25;8.37;;;3.07;;
17310;SDS011;8773;43.300;0.394;2023-03-29T06:55:53;7.27;;;3.33;;
17310;SDS011;8773;43.300;0.394;2023-03-29T06:58:21;6.13;;;2.80;;
17310;SDS011;8773;43.300;0.394;2023-03-29T07:00:49;7.03;;;3.17;;
17310;SDS011;8773;43.300;0.394;2023-03-29T07:03:19;9.57;;;2.70;;
17310;SDS011;8773;43.300;0.394;2023-03-29T07:05:49;5.77;;;2.77;;
17310;SDS011;8773;43.300;0.394;2023-03-29T07:08:22;9.67;;;3.40;;
17310;SDS011;8773;43.300;0.394;2023-03-29T07:10:58;8.17;;;3.23;;
17310;SDS011;8773;43.300;0.394;2023-03-29T07:13:27;10.80;;;3.57;;
17310;SDS011;8773;43.300;0.394;2023-03-29T07:15:55;8.57;;;3.00;;
17310;SDS011;8773;43.300;0.394;2023-03-29T07:18:23;6.40;;;3.30;;
17310;SDS011;8773;43.300;0.394;2023-03-29T07:20:52;10.17;;;3.40;;
17310;SDS011;8773;43.300;0.394;2023-03-29T07:23:20;10.53;;;3.40;;
17310;SDS011;8773;43.300;0.394;2023-03-29T07:25:48;12.83;;;3.30;;
17310;SDS011;8773;43.300;0.394;2023-03-29T07:28:17;7.73;;;3.50;;
17310;SDS011;8773;43.300;0.394;2023-03-29T07:30:45;7.90;;;3.30;;
17310;SDS011;8773;43.300;0.394;2023-03-29T07:33:14;8.97;;;3.40;;
17310;SDS011;8773;43.300;0.394;2023-03-29T07:35:44;7.03;;;3.13;;
17310;SDS011;8773;43.300;0.394;2023-03-29T07:38:13;8.90;;;2.97;;
17310;SDS011;8773;43.300;0.394;2023-03-29T07:40:41;7.32;;;2.90;;
17310;SDS011;8773;43.300;0.394;2023-03-29T07:43:09;9.00;;;3.35;;
17310;SDS011;8773;43.300;0.394;2023-03-29T07:45:39;8.52;;;2.97;;
17310;SDS011;8773;43.300;0.394;2023-03-29T07:48:07;11.55;;;3.55;;
17310;SDS011;8773;43.300;0.394;2023-03-29T07:50:35;6.65;;;2.83;;
17310;SDS011;8773;43.300;0.394;2023-03-29T07:53:03;6.50;;;3.20;;
17310;SDS011;8773;43.300;0.394;2023-03-29T07:55:31;5.53;;;3.08;;
17310;SDS011;8773;43.300;0.394;2023-03-29T07:57:59;8.43;;;3.38;;
17310;SDS011;8773;43.300;0.394;2023-03-29T08:00:29;8.55;;;3.47;;
17310;SDS011;8773;43.300;0.394;2023-03-29T08:02:59;6.93;;;3.17;;
17310;SDS011;8773;43.300;0.394;2023-03-29T08:05:29;6.65;;;3.67;;
17310;SDS011;8773;43.300;0.394;2023-03-29T08:08:06;10.20;;;3.78;;
17310;SDS011;8773;43.300;0.394;2023-03-29T08:10:35;5.82;;;3.67;;
17310;SDS011;8773;43.300;0.394;2023-03-29T08:13:05;8.05;;;3.92;;
17310;SDS011;8773;43.300;0.394;2023-03-29T08:15:34;8.57;;;3.38;;
17310;SDS011;8773;43.300;0.394;2023-03-29T08:18:06;10.57;;;3.92;;
17310;SDS011;8773;43.300;0.394;2023-03-29T08:20:34;6.47;;;4.20;;
17310;SDS011;8773;43.300;0.394;2023-03-29T08:23:03;7.97;;;3.97;;
17310;SDS011;8773;43.300;0.394;2023-03-29T08:25:31;10.23;;;4.40;;
17310;SDS011;8773;43.300;0.394;2023-03-29T08:28:00;9.60;;;4.57;;
17310;SDS011;8773;43.300;0.394;2023-03-29T08:30:28;9.57;;;4.05;;
17310;SDS011;8773;43.300;0.394;2023-03-29T08:32:56;7.47;;;3.35;;
17310;SDS011;8773;43.300;0.394;2023-03-29T08:35:25;12.48;;;3.72;;
17310;SDS011;8773;43.300;0.394;2023-03-29T08:37:53;9.52;;;3.55;;
17310;SDS011;8773;43.300;0.394;2023-03-29T08:40:22;10.65;;;4.05;;
17310;SDS011;8773;43.300;0.394;2023-03-29T08:43:03;7.22;;;3.47;;
17310;SDS011;8773;43.300;0.394;2023-03-29T08:45:42;5.40;;;3.15;;
17310;SDS011;8773;43.300;0.394;2023-03-29T08:48:18;7.55;;;3.05;;
17310;SDS011;8773;43.300;0.394;2023-03-29T08:50:54;10.05;;;3.63;;
17310;SDS011;8773;43.300;0.394;2023-03-29T08:53:28;9.60;;;3.20;;
17310;SDS011;8773;43.300;0.394;2023-03-29T08:56:01;5.15;;;3.17;;
17310;SDS011;8773;43.300;0.394;2023-03-29T08:58:34;6.70;;;2.90;;
17310;SDS011;8773;43.300;0.394;2023-03-29T09:01:04;6.13;;;2.78;;
17310;SDS011;8773;43.300;0.394;2023-03-29T09:03:37;8.18;;;2.95;;
17310;SDS011;8773;43.300;0.394;2023-03-29T09:06:11;6.75;;;3.13;;
17310;SDS011;8773;43.300;0.394;2023-03-29T09:08:40;9.32;;;3.15;;
17310;SDS011;8773;43.300;0.394;2023-03-29T09:11:15;7.10;;;3.35;;
17310;SDS011;8773;43.300;0.394;2023-03-29T09:13:57;8.93;;;3.63;;
17310;SDS011;8773;43.300;0.394;2023-03-29T09:16:39;8.27;;;3.90;;
17310;SDS011;8773;43.300;0.394;2023-03-29T09:19:18;6.00;;;3.30;;
17310;SDS011;8773;43.300;0.394;2023-03-29T09:21:56;10.60;;;3.60;;
17310;SDS011;8773;43.300;0.394;2023-03-29T09:24:33;8.00;;;3.25;;
17310;SDS011;8773;43.300;0.394;2023-03-29T09:27:09;11.27;;;3.78;;
17310;SDS011;8773;43.300;0.394;2023-03-29T09:29:39;8.10;;;3.17;;
17310;SDS011;8773;43.300;0.394;2023-03-29T09:32:13;9.40;;;3.40;;
17310;SDS011;8773;43.300;0.394;2023-03-29T09:34:44;6.22;;;3.25;;
17310;SDS011;8773;43.300;0.394;2023-03-29T09:37:18;8.60;;;2.80;;
17310;SDS011;8773;43.300;0.394;2023-03-29T09:39:48;7.32;;;3.10;;
17310;SDS011;8773;43.300;0.394;2023-03-29T09:42:18;9.77;;;3.70;;
17310;SDS011;8773;43.300;0.394;2023-03-29T09:44:46;10.10;;;3.28;;
17310;SDS011;8773;43.300;0.394;2023-03-29T09:47:17;8.10;;;3.50;;
17310;SDS011;8773;43.300;0.394;2023-03-29T09:49:48;7.05;;;3.35;;
17310;SDS011;8773;43.300;0.394;2023-03-29T09:52:18;11.48;;;3.85;;
17310;SDS011;8773;43.300;0.394;2023-03-29T09:54:46;10.88;;;3.58;;
17310;SDS011;8773;43.300;0.394;2023-03-29T09:57:15;9.88;;;3.50;;
17310;SDS011;8773;43.300;0.394;2023-03-29T09:59:43;7.32;;;3.42;;
17310;SDS011;8773;43.300;0.394;2023-03-29T10:02:12;8.68;;;3.50;;
17310;SDS011;8773;43.300;0.394;2023-03-29T10:04:40;8.10;;;3.30;;
17310;SDS011;8773;43.300;0.394;2023-03-29T10:07:11;9.05;;;3.72;;
17310;SDS011;8773;43.300;0.394;2023-03-29T10:09:44;10.38;;;3.50;;
17310;SDS011;8773;43.300;0.394;2023-03-29T10:12:13;8.82;;;3.53;;
17310;SDS011;8773;43.300;0.394;2023-03-29T10:14:42;10.82;;;3.55;;
17310;SDS011;8773;43.300;0.394;2023-03-29T10:17:49;6.65;;;3.42;;
17310;SDS011;8773;43.300;0.394;2023-03-29T10:20:23;8.18;;;3.10;;
17310;SDS011;8773;43.300;0.394;2023-03-29T10:23:58;8.17;;;3.73;;
17310;SDS011;8773;43.300;0.394;2023-03-29T10:26:27;9.00;;;3.40;;
17310;SDS011;8773;43.300;0.394;2023-03-29T10:28:58;7.28;;;2.90;;
17310;SDS011;8773;43.300;0.394;2023-03-29T10:31:29;15.15;;;4.03;;
17310;SDS011;8773;43.300;0.394;2023-03-29T10:34:00;8.82;;;3.30;;
17310;SDS011;8773;43.300;0.394;2023-03-29T10:36:31;7.53;;;3.47;;
17310;SDS011;8773;43.300;0.394;2023-03-29T10:39:01;6.43;;;2.97;;
17310;SDS011;8773;43.300;0.394;2023-03-29T10:41:32;8.88;;;3.25;;
17310;SDS011;8773;43.300;0.394;2023-03-29T10:44:02;6.60;;;3.08;;
17310;SDS011;8773;43.300;0.394;2023-03-29T10:46:31;6.75;;;2.85;;
17310;SDS011;8773;43.300;0.394;2023-03-29T10:49:02;9.70;;;3.22;;
17310;SDS011;8773;43.300;0.394;2023-03-29T10:51:35;10.75;;;3.10;;
17310;SDS011;8773;43.300;0.394;2023-03-29T10:54:05;8.20;;;3.25;;
17310;SDS011;8773;43.300;0.394;2023-03-29T10:56:40;8.00;;;3.30;;
17310;SDS011;8773;43.300;0.394;2023-03-29T10:59:17;9.98;;;2.70;;
17310;SDS011;8773;43.300;0.394;2023-03-29T11:01:54;7.55;;;2.75;;
17310;SDS011;8773;43.300;0.394;2023-03-29T11:04:32;10.57;;;3.17;;
17310;SDS011;8773;43.300;0.394;2023-03-29T11:07:18;6.65;;;2.50;;
17310;SDS011;8773;43.300;0.394;2023-03-29T11:10:00;9.65;;;3.40;;
17310;SDS011;8773;43.300;0.394;2023-03-29T11:12:42;8.88;;;3.03;;
17310;SDS011;8773;43.300;0.394;2023-03-29T11:15:20;10.38;;;2.80;;
17310;SDS011;8773;43.300;0.394;2023-03-29T11:18:01;7.65;;;2.70;;
17310;SDS011;8773;43.300;0.394;2023-03-29T11:20:43;7.50;;;2.70;;
17310;SDS011;8773;43.300;0.394;2023-03-29T11:23:20;10.15;;;3.13;;
17310;SDS011;8773;43.300;0.394;2023-03-29T11:26:03;7.75;;;2.72;;
17310;SDS011;8773;43.300;0.394;2023-03-29T11:28:39;7.25;;;2.95;;
17310;SDS011;8773;43.300;0.394;2023-03-29T11:31:17;7.88;;;2.67;;
17310;SDS011;8773;43.300;0.394;2023-03-29T11:33:57;9.98;;;3.08;;
17310;SDS011;8773;43.300;0.394;2023-03-29T11:36:39;8.10;;;2.88;;
17310;SDS011;8773;43.300;0.394;2023-03-29T11:39:18;8.15;;;2.60;;
17310;SDS011;8773;43.300;0.394;2023-03-29T11:41:55;7.07;;;2.92;;
17310;SDS011;8773;43.300;0.394;2023-03-29T11:44:30;7.40;;;2.60;;
17310;SDS011;8773;43.300;0.394;2023-03-29T11:46:59;10.32;;;3.13;;
17310;SDS011;8773;43.300;0.394;2023-03-29T11:49:31;8.50;;;3.03;;
17310;SDS011;8773;43.300;0.394;2023-03-29T11:52:05;8.05;;;3.05;;
17310;SDS011;8773;43.300;0.394;2023-03-29T11:54:39;11.18;;;3.22;;
17310;SDS011;8773;43.300;0.394;2023-03-29T11:57:16;10.93;;;3.05;;
17310;SDS011;8773;43.300;0.394;2023-03-29T11:59:50;8.63;;;3.17;;
17310;SDS011;8773;43.300;0.394;2023-03-29T12:02:24;9.02;;;2.60;;
17310;SDS011;8773;43.300;0.394;2023-03-29T12:05:00;8.00;;;3.10;;
17310;SDS011;8773;43.300;0.394;2023-03-29T12:07:34;11.48;;;3.38;;
17310;SDS011;8773;43.300;0.394;2023-03-29T12:10:07;10.18;;;3.15;;
17310;SDS011;8773;43.300;0.394;2023-03-29T12:12:45;7.35;;;2.67;;
17310;SDS011;8773;43.300;0.394;2023-03-29T12:15:20;7.18;;;2.75;;
17310;SDS011;8773;43.300;0.394;2023-03-29T12:17:53;15.27;;;3.20;;
17310;SDS011;8773;43.300;0.394;2023-03-29T12:20:34;11.07;;;2.67;;
17310;SDS011;8773;43.300;0.394;2023-03-29T12:23:05;8.98;;;3.05;;
17310;SDS011;8773;43.300;0.394;2023-03-29T12:25:37;7.45;;;2.63;;
17310;SDS011;8773;43.300;0.394;2023-03-29T12:28:17;7.20;;;2.83;;
17310;SDS011;8773;43.300;0.394;2023-03-29T12:30:55;7.05;;;3.10;;
17310;SDS011;8773;43.300;0.394;2023-03-29T12:33:39;9.52;;;3.53;;
17310;SDS011;8773;43.300;0.394;2023-03-29T12:36:28;11.30;;;2.80;;
17310;SDS011;8773;43.300;0.394;2023-03-29T12:39:10;12.32;;;3.10;;
17310;SDS011;8773;43.300;0.394;2023-03-29T12:41:40;8.13;;;3.00;;
17310;SDS011;8773;43.300;0.394;2023-03-29T12:44:15;7.97;;;2.83;;
17310;SDS011;8773;43.300;0.394;2023-03-29T12:46:49;8.82;;;2.78;;
17310;SDS011;8773;43.300;0.394;2023-03-29T12:49:20;7.10;;;2.60;;
17310;SDS011;8773;43.300;0.394;2023-03-29T12:51:53;12.90;;;3.00;;
17310;SDS011;8773;43.300;0.394;2023-03-29T12:54:24;11.07;;;3.30;;
17310;SDS011;8773;43.300;0.394;2023-03-29T12:56:55;8.23;;;2.95;;
17310;SDS011;8773;43.300;0.394;2023-03-29T12:59:35;11.07;;;5.00;;
17310;SDS011;8773;43.300;0.394;2023-03-29T13:02:23;8.90;;;3.70;;
17310;SDS011;8773;43.300;0.394;2023-03-29T13:04:54;7.85;;;2.85;;
17310;SDS011;8773;43.300;0.394;2023-03-29T13:07:30;9.60;;;2.72;;
17310;SDS011;8773;43.300;0.394;2023-03-29T13:10:25;6.13;;;2.70;;
17310;SDS011;8773;43.300;0.394;2023-03-29T13:13:06;7.75;;;2.42;;
17310;SDS011;8773;43.300;0.394;2023-03-29T13:15:39;9.27;;;2.85;;
17310;SDS011;8773;43.300;0.394;2023-03-29T13:18:12;6.47;;;2.40;;
17310;SDS011;8773;43.300;0.394;2023-03-29T13:20:51;7.07;;;2.70;;
17310;SDS011;8773;43.300;0.394;2023-03-29T13:23:32;7.00;;;2.58;;
17310;SDS011;8773;43.300;0.394;2023-03-29T13:26:11;6.28;;;2.42;;
17310;SDS011;8773;43.300;0.394;2023-03-29T13:28:53;5.93;;;2.40;;
17310;SDS011;8773;43.300;0.394;2023-03-29T13:31:35;6.18;;;2.80;;
17310;SDS011;8773;43.300;0.394;2023-03-29T13:34:11;6.05;;;2.50;;
17310;SDS011;8773;43.300;0.394;2023-03-29T13:36:56;5.18;;;2.33;;
17310;SDS011;8773;43.300;0.394;2023-03-29T13:39:34;6.32;;;2.30;;
17310;SDS011;8773;43.300;0.394;2023-03-29T13:42:15;8.52;;;2.60;;
17310;SDS011;8773;43.300;0.394;2023-03-29T13:44:47;7.20;;;2.40;;
17310;SDS011;8773;43.300;0.394;2023-03-29T13:50:28;5.32;;;2.80;;
17310;SDS011;8773;43.300;0.394;2023-03-29T13:53:02;5.93;;;2.55;;
17310;SDS011;8773;43.300;0.394;2023-03-29T13:55:39;5.40;;;2.60;;
17310;SDS011;8773;43.300;0.394;2023-03-29T13:58:13;5.55;;;2.58;;
17310;SDS011;8773;43.300;0.394;2023-03-29T14:00:48;11.02;;;2.80;;
17310;SDS011;8773;43.300;0.394;2023-03-29T14:03:21;6.30;;;2.70;;
17310;SDS011;8773;43.300;0.394;2023-03-29T14:05:56;8.73;;;2.65;;
17310;SDS011;8773;43.300;0.394;2023-03-29T14:08:28;7.43;;;2.55;;
17310;SDS011;8773;43.300;0.394;2023-03-29T14:11:01;5.38;;;2.65;;
17310;SDS011;8773;43.300;0.394;2023-03-29T14:13:32;7.55;;;2.75;;
17310;SDS011;8773;43.300;0.394;2023-03-29T14:16:02;7.65;;;2.55;;
17310;SDS011;8773;43.300;0.394;2023-03-29T14:18:37;7.90;;;2.78;;
17310;SDS011;8773;43.300;0.394;2023-03-29T14:21:09;5.80;;;2.40;;
17310;SDS011;8773;43.300;0.394;2023-03-29T14:23:41;7.03;;;2.78;;
17310;SDS011;8773;43.300;0.394;2023-03-29T14:26:13;5.78;;;2.38;;
17310;SDS011;8773;43.300;0.394;2023-03-29T14:28:46;4.72;;;2.72;;
17310;SDS011;8773;43.300;0.394;2023-03-29T14:31:18;5.75;;;2.55;;
17310;SDS011;8773;43.300;0.394;2023-03-29T14:33:52;7.95;;;2.88;;
17310;SDS011;8773;43.300;0.394;2023-03-29T14:36:21;5.80;;;2.60;;
17310;SDS011;8773;43.300;0.394;2023-03-29T14:38:51;6.22;;;2.60;;
17310;SDS011;8773;43.300;0.394;2023-03-29T14:41:23;6.32;;;2.45;;
17310;SDS011;8773;43.300;0.394;2023-03-29T14:43:56;8.07;;;2.58;;
17310;SDS011;8773;43.300;0.394;2023-03-29T14:46:25;8.57;;;2.75;;
17310;SDS011;8773;43.300;0.394;2023-03-29T14:48:55;4.50;;;2.60;;
17310;SDS011;8773;43.300;0.394;2023-03-29T14:51:24;5.75;;;2.42;;
17310;SDS011;8773;43.300;0.394;2023-03-29T14:53:56;9.27;;;2.72;;
17310;SDS011;8773;43.300;0.394;2023-03-29T14:56:25;5.70;;;2.50;;
17310;SDS011;8773;43.300;0.394;2023-03-29T14:58:54;6.18;;;2.90;;
17310;SDS011;8773;43.300;0.394;2023-03-29T15:01:23;5.80;;;2.78;;
17310;SDS011;8773;43.300;0.394;2023-03-29T15:03:53;5.30;;;2.88;;
17310;SDS011;8773;43.300;0.394;2023-03-29T15:06:24;5.53;;;2.60;;
17310;SDS011;8773;43.300;0.394;2023-03-29T15:08:55;7.45;;;2.72;;
17310;SDS011;8773;43.300;0.394;2023-03-29T15:11:32;6.57;;;3.20;;
17310;SDS011;8773;43.300;0.394;2023-03-29T15:14:01;5.90;;;3.08;;
17310;SDS011;8773;43.300;0.394;2023-03-29T15:16:31;5.20;;;2.90;;
17310;SDS011;8773;43.300;0.394;2023-03-29T15:19:01;5.30;;;3.63;;
17310;SDS011;8773;43.300;0.394;2023-03-29T15:21:31;7.13;;;3.17;;
17310;SDS011;8773;43.300;0.394;2023-03-29T15:24:01;7.47;;;2.90;;
17310;SDS011;8773;43.300;0.394;2023-03-29T15:26:31;6.05;;;3.38;;
17310;SDS011;8773;43.300;0.394;2023-03-29T15:29:01;5.10;;;3.13;;
17310;SDS011;8773;43.300;0.394;2023-03-29T15:31:34;6.30;;;3.38;;
17310;SDS011;8773;43.300;0.394;2023-03-29T15:34:05;5.20;;;3.03;;
17310;SDS011;8773;43.300;0.394;2023-03-29T15:36:37;3.80;;;3.00;;
17310;SDS011;8773;43.300;0.394;2023-03-29T15:39:09;5.70;;;3.28;;
17310;SDS011;8773;43.300;0.394;2023-03-29T15:41:38;7.80;;;3.20;;
17310;SDS011;8773;43.300;0.394;2023-03-29T15:44:06;5.65;;;3.17;;
17310;SDS011;8773;43.300;0.394;2023-03-29T15:46:35;4.95;;;2.97;;
17310;SDS011;8773;43.300;0.394;2023-03-29T15:49:06;8.05;;;3.63;;
17310;SDS011;8773;43.300;0.394;2023-03-29T15:51:37;11.13;;;3.45;;
17310;SDS011;8773;43.300;0.394;2023-03-29T15:54:05;8.73;;;3.70;;
17310;SDS011;8773;43.300;0.394;2023-03-29T15:56:36;8.68;;;3.60;;
17310;SDS011;8773;43.300;0.394;2023-03-29T15:59:11;8.57;;;3.60;;
17310;SDS011;8773;43.300;0.394;2023-03-29T16:01:39;4.85;;;3.38;;
17310;SDS011;8773;43.300;0.394;2023-03-29T16:04:10;5.07;;;3.80;;
17310;SDS011;8773;43.300;0.394;2023-03-29T16:06:39;7.35;;;3.75;;
17310;SDS011;8773;43.300;0.394;2023-03-29T16:09:08;4.80;;;3.30;;